sensor_id;sensor_type;location;lat;lon;timestamp;P1;durP1;ratioP1;P2;durP2;ratioP2
20910;SDS011;10615;42.702;23.314;2024-02-26T00:00:59;31.13;;;21.13;;
20910;SDS011;10615;42.702;23.314;2024-02-26T00:02:00;30.92;;;21.00;;
20910;SDS011;10615;42.702;23.314;2024-02-26T00:03:01;30.60;;;21.60;;
20910;SDS011;10615;42.702;23.314;2024-02-26T00:04:01;30.65;;;21.05;;
20910;SDS011;10615;42.702;23.314;2024-02-26T00:05:06;28.50;;;20.15;;
20910;SDS011;10615;42.702;23.314;2024-02-26T00:06:07;29.50;;;20.13;;
20910;SDS011;10615;42.702;23.314;2024-02-26T00:07:08;30.80;;;20.25;;
20910;SDS011;10615;42.702;23.314;2024-02-26T00:08:09;34.22;;;21.50;;
20910;SDS011;10615;42.702;23.314;2024-02-26T00:09:10;37.53;;;22.05;;
20910;SDS011;10615;42.702;23.314;2024-02-26T00:10:10;35.35;;;21.50;;
20910;SDS011;10615;42.702;23.314;2024-02-26T00:11:11;37.92;;;22.60;;
20910;SDS011;10615;42.702;23.314;2024-02-26T00:12:12;37.40;;;22.40;;
20910;SDS011;10615;42.702;23.314;2024-02-26T00:13:13;33.03;;;21.95;;
20910;SDS011;10615;42.702;23.314;2024-02-26T00:14:14;35.17;;;22.35;;
20910;SDS011;10615;42.702;23.314;2024-02-26T00:15:15;30.88;;;21.38;;
20910;SDS011;10615;42.702;23.314;2024-02-26T00:16:16;35.78;;;21.17;;
20910;SDS011;10615;42.702;23.314;2024-02-26T00:17:16;31.73;;;21.83;;
20910;SDS011;10615;42.702;23.314;2024-02-26T00:18:17;34.13;;;21.35;;
20910;SDS011;10615;42.702;23.314;2024-02-26T00:19:18;32.70;;;20.02;;
20910;SDS011;10615;42.702;23.314;2024-02-26T00:20:19;31.23;;;20.77;;
20910;SDS011;10615;42.702;23.314;2024-02-26T00:21:19;31.80;;;20.90;;
20910;SDS011;10615;42.702;23.314;2024-02-26T00:22:20;30.33;;;20.73;;
20910;SDS011;10615;42.702;23.314;2024-02-26T00:23:22;35.78;;;20.75;;
20910;SDS011;10615;42.702;23.314;2024-02-26T00:24:24;34.28;;;21.52;;
20910;SDS011;10615;42.702;23.314;2024-02-26T00:25:25;35.42;;;21.77;;
20910;SDS011;10615;42.702;23.314;2024-02-26T00:26:26;32.88;;;21.50;;
20910;SDS011;10615;42.702;23.314;2024-02-26T00:27:26;31.35;;;20.88;;
20910;SDS011;10615;42.702;23.314;2024-02-26T00:28:27;30.35;;;20.38;;
20910;SDS011;10615;42.702;23.314;2024-02-26T00:29:29;32.67;;;21.20;;
20910;SDS011;10615;42.702;23.314;2024-02-26T00:30:30;30.77;;;21.10;;
20910;SDS011;10615;42.702;23.314;2024-02-26T00:31:30;30.58;;;20.80;;
20910;SDS011;10615;42.702;23.314;2024-02-26T00:32:31;29.88;;;20.08;;
20910;SDS011;10615;42.702;23.314;2024-02-26T00:33:32;34.03;;;21.80;;
20910;SDS011;10615;42.702;23.314;2024-02-26T00:34:33;31.20;;;21.77;;
20910;SDS011;10615;42.702;23.314;2024-02-26T00:35:33;34.53;;;21.83;;
20910;SDS011;10615;42.702;23.314;2024-02-26T00:36:34;31.88;;;22.38;;
20910;SDS011;10615;42.702;23.314;2024-02-26T00:37:35;39.65;;;22.88;;
20910;SDS011;10615;42.702;23.314;2024-02-26T00:38:36;33.75;;;21.95;;
20910;SDS011;10615;42.702;23.314;2024-02-26T00:39:36;32.60;;;22.00;;
20910;SDS011;10615;42.702;23.314;2024-02-26T00:40:37;32.55;;;22.25;;
20910;SDS011;10615;42.702;23.314;2024-02-26T00:41:39;29.92;;;21.27;;
20910;SDS011;10615;42.702;23.314;2024-02-26T00:42:40;33.28;;;22.35;;
20910;SDS011;10615;42.702;23.314;2024-02-26T00:43:46;32.35;;;21.60;;
20910;SDS011;10615;42.702;23.314;2024-02-26T00:44:47;29.45;;;20.92;;
20910;SDS011;10615;42.702;23.314;2024-02-26T00:45:47;35.45;;;20.98;;
20910;SDS011;10615;42.702;23.314;2024-02-26T00:46:48;33.90;;;21.77;;
20910;SDS011;10615;42.702;23.314;2024-02-26T00:47:49;32.95;;;22.25;;
20910;SDS011;10615;42.702;23.314;2024-02-26T00:48:50;34.50;;;21.58;;
20910;SDS011;10615;42.702;23.314;2024-02-26T00:49:50;29.67;;;20.75;;
20910;SDS011;10615;42.702;23.314;2024-02-26T00:50:51;30.25;;;21.67;;
20910;SDS011;10615;42.702;23.314;2024-02-26T00:51:52;33.15;;;22.00;;
20910;SDS011;10615;42.702;23.314;2024-02-26T00:52:53;32.70;;;21.98;;
20910;SDS011;10615;42.702;23.314;2024-02-26T00:53:54;29.73;;;20.55;;
20910;SDS011;10615;42.702;23.314;2024-02-26T00:54:55;36.88;;;22.40;;
20910;SDS011;10615;42.702;23.314;2024-02-26T00:55:56;31.58;;;21.08;;
20910;SDS011;10615;42.702;23.314;2024-02-26T00:56:59;28.58;;;19.83;;
20910;SDS011;10615;42.702;23.314;2024-02-26T00:57:59;32.72;;;21.38;;
20910;SDS011;10615;42.702;23.314;2024-02-26T00:59:00;32.30;;;20.05;;
20910;SDS011;10615;42.702;23.314;2024-02-26T01:00:01;29.33;;;20.45;;
20910;SDS011;10615;42.702;23.314;2024-02-26T01:01:02;31.42;;;21.17;;
20910;SDS011;10615;42.702;23.314;2024-02-26T01:02:03;35.88;;;20.77;;
20910;SDS011;10615;42.702;23.314;2024-02-26T01:03:05;31.05;;;21.20;;
20910;SDS011;10615;42.702;23.314;2024-02-26T01:04:06;33.35;;;20.88;;
20910;SDS011;10615;42.702;23.314;2024-02-26T01:05:07;30.83;;;20.88;;
20910;SDS011;10615;42.702;23.314;2024-02-26T01:06:11;32.30;;;21.08;;
20910;SDS011;10615;42.702;23.314;2024-02-26T01:07:12;30.50;;;20.42;;
20910;SDS011;10615;42.702;23.314;2024-02-26T01:08:12;31.15;;;20.98;;
20910;SDS011;10615;42.702;23.314;2024-02-26T01:09:13;31.83;;;21.17;;
20910;SDS011;10615;42.702;23.314;2024-02-26T01:10:14;33.85;;;21.85;;
20910;SDS011;10615;42.702;23.314;2024-02-26T01:11:15;30.38;;;20.48;;
20910;SDS011;10615;42.702;23.314;2024-02-26T01:12:15;32.05;;;21.13;;
20910;SDS011;10615;42.702;23.314;2024-02-26T01:13:16;28.60;;;20.33;;
20910;SDS011;10615;42.702;23.314;2024-02-26T01:14:17;29.67;;;20.48;;
20910;SDS011;10615;42.702;23.314;2024-02-26T01:15:18;28.95;;;20.65;;
20910;SDS011;10615;42.702;23.314;2024-02-26T01:16:22;27.92;;;20.58;;
20910;SDS011;10615;42.702;23.314;2024-02-26T01:17:23;30.38;;;20.30;;
20910;SDS011;10615;42.702;23.314;2024-02-26T01:18:24;34.65;;;22.00;;
20910;SDS011;10615;42.702;23.314;2024-02-26T01:19:25;30.58;;;21.48;;
20910;SDS011;10615;42.702;23.314;2024-02-26T01:20:25;30.88;;;20.98;;
20910;SDS011;10615;42.702;23.314;2024-02-26T01:21:26;29.35;;;19.67;;
20910;SDS011;10615;42.702;23.314;2024-02-26T01:22:29;35.08;;;21.40;;
20910;SDS011;10615;42.702;23.314;2024-02-26T01:23:30;29.38;;;20.42;;
20910;SDS011;10615;42.702;23.314;2024-02-26T01:24:31;31.90;;;21.08;;
20910;SDS011;10615;42.702;23.314;2024-02-26T01:25:31;28.15;;;20.13;;
20910;SDS011;10615;42.702;23.314;2024-02-26T01:26:32;32.25;;;19.92;;
20910;SDS011;10615;42.702;23.314;2024-02-26T01:27:33;30.23;;;20.73;;
20910;SDS011;10615;42.702;23.314;2024-02-26T01:28:33;33.13;;;21.17;;
20910;SDS011;10615;42.702;23.314;2024-02-26T01:29:34;32.08;;;20.05;;
20910;SDS011;10615;42.702;23.314;2024-02-26T01:30:35;28.80;;;19.67;;
20910;SDS011;10615;42.702;23.314;2024-02-26T01:31:36;27.98;;;19.45;;
20910;SDS011;10615;42.702;23.314;2024-02-26T01:32:36;28.77;;;19.52;;
20910;SDS011;10615;42.702;23.314;2024-02-26T01:33:37;25.98;;;18.27;;
20910;SDS011;10615;42.702;23.314;2024-02-26T01:34:38;26.23;;;18.58;;
20910;SDS011;10615;42.702;23.314;2024-02-26T01:35:39;27.40;;;19.40;;
20910;SDS011;10615;42.702;23.314;2024-02-26T01:36:39;27.35;;;19.15;;
20910;SDS011;10615;42.702;23.314;2024-02-26T01:37:41;28.02;;;19.02;;
20910;SDS011;10615;42.702;23.314;2024-02-26T01:38:42;31.40;;;19.52;;
20910;SDS011;10615;42.702;23.314;2024-02-26T01:39:43;25.60;;;18.05;;
20910;SDS011;10615;42.702;23.314;2024-02-26T01:40:44;27.27;;;19.67;;
20910;SDS011;10615;42.702;23.314;2024-02-26T01:41:44;25.35;;;18.80;;
20910;SDS011;10615;42.702;23.314;2024-02-26T01:42:45;28.98;;;19.38;;
20910;SDS011;10615;42.702;23.314;2024-02-26T01:43:46;25.15;;;18.70;;
20910;SDS011;10615;42.702;23.314;2024-02-26T01:44:47;27.30;;;18.85;;
20910;SDS011;10615;42.702;23.314;2024-02-26T01:45:47;28.13;;;18.90;;
20910;SDS011;10615;42.702;23.314;2024-02-26T01:46:48;28.10;;;19.40;;
20910;SDS011;10615;42.702;23.314;2024-02-26T01:47:49;27.20;;;18.92;;
20910;SDS011;10615;42.702;23.314;2024-02-26T01:48:51;27.70;;;18.73;;
20910;SDS011;10615;42.702;23.314;2024-02-26T01:49:52;26.13;;;18.75;;
20910;SDS011;10615;42.702;23.314;2024-02-26T01:50:53;28.42;;;18.70;;
20910;SDS011;10615;42.702;23.314;2024-02-26T01:51:54;28.10;;;19.45;;
20910;SDS011;10615;42.702;23.314;2024-02-26T01:52:55;26.83;;;19.77;;
20910;SDS011;10615;42.702;23.314;2024-02-26T01:53:58;28.02;;;19.63;;
20910;SDS011;10615;42.702;23.314;2024-02-26T01:55:02;27.42;;;20.00;;
20910;SDS011;10615;42.702;23.314;2024-02-26T01:56:03;28.55;;;19.58;;
20910;SDS011;10615;42.702;23.314;2024-02-26T01:57:05;28.73;;;19.70;;
20910;SDS011;10615;42.702;23.314;2024-02-26T01:58:06;27.20;;;19.10;;
20910;SDS011;10615;42.702;23.314;2024-02-26T01:59:07;26.98;;;18.80;;
20910;SDS011;10615;42.702;23.314;2024-02-26T02:00:09;28.83;;;20.02;;
20910;SDS011;10615;42.702;23.314;2024-02-26T02:01:10;32.20;;;20.38;;
20910;SDS011;10615;42.702;23.314;2024-02-26T02:02:12;26.13;;;19.33;;
20910;SDS011;10615;42.702;23.314;2024-02-26T02:03:14;30.17;;;19.85;;
20910;SDS011;10615;42.702;23.314;2024-02-26T02:04:15;32.80;;;19.33;;
20910;SDS011;10615;42.702;23.314;2024-02-26T02:05:16;26.27;;;19.50;;
20910;SDS011;10615;42.702;23.314;2024-02-26T02:06:17;25.67;;;19.50;;
20910;SDS011;10615;42.702;23.314;2024-02-26T02:07:20;29.45;;;18.83;;
20910;SDS011;10615;42.702;23.314;2024-02-26T02:08:23;28.50;;;19.42;;
20910;SDS011;10615;42.702;23.314;2024-02-26T02:09:23;25.33;;;19.17;;
20910;SDS011;10615;42.702;23.314;2024-02-26T02:10:26;24.77;;;18.80;;
20910;SDS011;10615;42.702;23.314;2024-02-26T02:11:27;26.98;;;19.25;;
20910;SDS011;10615;42.702;23.314;2024-02-26T02:12:28;26.92;;;19.20;;
20910;SDS011;10615;42.702;23.314;2024-02-26T02:13:29;27.20;;;19.30;;
20910;SDS011;10615;42.702;23.314;2024-02-26T02:14:30;26.73;;;19.42;;
20910;SDS011;10615;42.702;23.314;2024-02-26T02:15:31;27.38;;;19.92;;
20910;SDS011;10615;42.702;23.314;2024-02-26T02:16:32;31.33;;;19.77;;
20910;SDS011;10615;42.702;23.314;2024-02-26T02:17:32;26.40;;;19.45;;
20910;SDS011;10615;42.702;23.314;2024-02-26T02:18:34;29.00;;;20.27;;
20910;SDS011;10615;42.702;23.314;2024-02-26T02:19:35;27.90;;;19.77;;
20910;SDS011;10615;42.702;23.314;2024-02-26T02:20:35;27.48;;;18.83;;
20910;SDS011;10615;42.702;23.314;2024-02-26T02:21:36;26.90;;;19.05;;
20910;SDS011;10615;42.702;23.314;2024-02-26T02:22:37;27.67;;;20.77;;
20910;SDS011;10615;42.702;23.314;2024-02-26T02:23:38;29.08;;;21.02;;
20910;SDS011;10615;42.702;23.314;2024-02-26T02:24:39;26.63;;;19.58;;
20910;SDS011;10615;42.702;23.314;2024-02-26T02:25:40;31.27;;;20.35;;
20910;SDS011;10615;42.702;23.314;2024-02-26T02:26:40;32.47;;;20.80;;
20910;SDS011;10615;42.702;23.314;2024-02-26T02:27:41;26.50;;;20.70;;
20910;SDS011;10615;42.702;23.314;2024-02-26T02:28:43;29.15;;;20.58;;
20910;SDS011;10615;42.702;23.314;2024-02-26T02:29:47;27.92;;;21.08;;
20910;SDS011;10615;42.702;23.314;2024-02-26T02:30:48;29.58;;;21.25;;
20910;SDS011;10615;42.702;23.314;2024-02-26T02:31:49;26.73;;;19.90;;
20910;SDS011;10615;42.702;23.314;2024-02-26T02:32:50;29.77;;;20.35;;
20910;SDS011;10615;42.702;23.314;2024-02-26T02:33:51;27.45;;;20.50;;
20910;SDS011;10615;42.702;23.314;2024-02-26T02:34:52;30.25;;;20.67;;
20910;SDS011;10615;42.702;23.314;2024-02-26T02:35:53;30.02;;;20.48;;
20910;SDS011;10615;42.702;23.314;2024-02-26T02:36:55;29.35;;;20.85;;
20910;SDS011;10615;42.702;23.314;2024-02-26T02:37:56;27.65;;;20.63;;
20910;SDS011;10615;42.702;23.314;2024-02-26T02:38:58;25.23;;;19.80;;
20910;SDS011;10615;42.702;23.314;2024-02-26T02:39:58;29.42;;;19.88;;
20910;SDS011;10615;42.702;23.314;2024-02-26T02:41:00;29.27;;;20.75;;
20910;SDS011;10615;42.702;23.314;2024-02-26T02:42:00;26.27;;;19.77;;
20910;SDS011;10615;42.702;23.314;2024-02-26T02:43:01;26.92;;;20.63;;
20910;SDS011;10615;42.702;23.314;2024-02-26T02:44:02;26.35;;;20.42;;
20910;SDS011;10615;42.702;23.314;2024-02-26T02:45:03;26.83;;;19.48;;
20910;SDS011;10615;42.702;23.314;2024-02-26T02:46:04;29.63;;;20.63;;
20910;SDS011;10615;42.702;23.314;2024-02-26T02:47:04;30.90;;;21.05;;
20910;SDS011;10615;42.702;23.314;2024-02-26T02:48:05;28.35;;;20.63;;
20910;SDS011;10615;42.702;23.314;2024-02-26T02:49:09;29.45;;;21.23;;
20910;SDS011;10615;42.702;23.314;2024-02-26T02:50:10;29.60;;;21.27;;
20910;SDS011;10615;42.702;23.314;2024-02-26T02:51:11;31.77;;;22.10;;
20910;SDS011;10615;42.702;23.314;2024-02-26T02:52:12;35.83;;;22.05;;
20910;SDS011;10615;42.702;23.314;2024-02-26T02:53:13;28.67;;;21.23;;
20910;SDS011;10615;42.702;23.314;2024-02-26T02:54:13;29.70;;;21.58;;
20910;SDS011;10615;42.702;23.314;2024-02-26T02:55:14;32.53;;;21.38;;
20910;SDS011;10615;42.702;23.314;2024-02-26T02:56:15;29.10;;;21.17;;
20910;SDS011;10615;42.702;23.314;2024-02-26T02:57:16;34.35;;;21.23;;
20910;SDS011;10615;42.702;23.314;2024-02-26T02:58:17;30.50;;;21.38;;
20910;SDS011;10615;42.702;23.314;2024-02-26T02:59:17;26.05;;;21.05;;
20910;SDS011;10615;42.702;23.314;2024-02-26T03:00:18;31.77;;;21.15;;
20910;SDS011;10615;42.702;23.314;2024-02-26T03:01:19;31.83;;;21.30;;
20910;SDS011;10615;42.702;23.314;2024-02-26T03:02:20;26.10;;;20.92;;
20910;SDS011;10615;42.702;23.314;2024-02-26T03:03:20;30.20;;;21.23;;
20910;SDS011;10615;42.702;23.314;2024-02-26T03:04:24;28.50;;;21.42;;
20910;SDS011;10615;42.702;23.314;2024-02-26T03:05:24;30.23;;;22.25;;
20910;SDS011;10615;42.702;23.314;2024-02-26T03:06:25;29.98;;;22.38;;
20910;SDS011;10615;42.702;23.314;2024-02-26T03:07:27;28.38;;;21.45;;
20910;SDS011;10615;42.702;23.314;2024-02-26T03:08:28;28.17;;;21.13;;
20910;SDS011;10615;42.702;23.314;2024-02-26T03:09:29;28.70;;;21.38;;
20910;SDS011;10615;42.702;23.314;2024-02-26T03:10:30;31.20;;;21.65;;
20910;SDS011;10615;42.702;23.314;2024-02-26T03:11:31;29.95;;;22.67;;
20910;SDS011;10615;42.702;23.314;2024-02-26T03:12:32;30.48;;;21.38;;
20910;SDS011;10615;42.702;23.314;2024-02-26T03:13:33;29.58;;;21.38;;
20910;SDS011;10615;42.702;23.314;2024-02-26T03:14:34;29.73;;;20.30;;
20910;SDS011;10615;42.702;23.314;2024-02-26T03:15:35;28.73;;;20.77;;
20910;SDS011;10615;42.702;23.314;2024-02-26T03:16:35;27.40;;;21.13;;
20910;SDS011;10615;42.702;23.314;2024-02-26T03:17:36;30.40;;;21.38;;
20910;SDS011;10615;42.702;23.314;2024-02-26T03:18:40;27.15;;;20.50;;
20910;SDS011;10615;42.702;23.314;2024-02-26T03:19:41;27.13;;;20.65;;
20910;SDS011;10615;42.702;23.314;2024-02-26T03:20:46;28.90;;;20.90;;
20910;SDS011;10615;42.702;23.314;2024-02-26T03:21:47;28.23;;;19.92;;
20910;SDS011;10615;42.702;23.314;2024-02-26T03:22:48;27.27;;;20.13;;
20910;SDS011;10615;42.702;23.314;2024-02-26T03:23:48;30.17;;;21.23;;
20910;SDS011;10615;42.702;23.314;2024-02-26T03:24:49;26.23;;;19.88;;
20910;SDS011;10615;42.702;23.314;2024-02-26T03:25:50;30.88;;;20.85;;
20910;SDS011;10615;42.702;23.314;2024-02-26T03:26:51;29.70;;;21.83;;
20910;SDS011;10615;42.702;23.314;2024-02-26T03:27:52;26.05;;;19.92;;
20910;SDS011;10615;42.702;23.314;2024-02-26T03:28:52;29.05;;;20.90;;
20910;SDS011;10615;42.702;23.314;2024-02-26T03:29:53;30.05;;;21.08;;
20910;SDS011;10615;42.702;23.314;2024-02-26T03:30:54;27.35;;;20.60;;
20910;SDS011;10615;42.702;23.314;2024-02-26T03:31:54;27.60;;;20.80;;
20910;SDS011;10615;42.702;23.314;2024-02-26T03:32:55;25.85;;;20.38;;
20910;SDS011;10615;42.702;23.314;2024-02-26T03:33:56;28.73;;;21.23;;
20910;SDS011;10615;42.702;23.314;2024-02-26T03:34:57;28.23;;;20.45;;
20910;SDS011;10615;42.702;23.314;2024-02-26T03:35:58;28.45;;;20.42;;
20910;SDS011;10615;42.702;23.314;2024-02-26T03:36:58;27.70;;;20.05;;
20910;SDS011;10615;42.702;23.314;2024-02-26T03:37:59;27.95;;;20.73;;
20910;SDS011;10615;42.702;23.314;2024-02-26T03:39:00;27.92;;;20.35;;
20910;SDS011;10615;42.702;23.314;2024-02-26T03:40:02;26.50;;;19.88;;
20910;SDS011;10615;42.702;23.314;2024-02-26T03:41:03;27.80;;;20.40;;
20910;SDS011;10615;42.702;23.314;2024-02-26T03:42:04;27.15;;;20.33;;
20910;SDS011;10615;42.702;23.314;2024-02-26T03:43:05;29.92;;;20.23;;
20910;SDS011;10615;42.702;23.314;2024-02-26T03:44:07;25.75;;;19.63;;
20910;SDS011;10615;42.702;23.314;2024-02-26T03:45:08;28.90;;;19.92;;
20910;SDS011;10615;42.702;23.314;2024-02-26T03:46:09;25.35;;;19.33;;
20910;SDS011;10615;42.702;23.314;2024-02-26T03:47:13;26.23;;;19.73;;
20910;SDS011;10615;42.702;23.314;2024-02-26T03:48:14;26.42;;;19.75;;
20910;SDS011;10615;42.702;23.314;2024-02-26T03:49:15;25.92;;;20.15;;
20910;SDS011;10615;42.702;23.314;2024-02-26T03:50:16;24.63;;;18.33;;
20910;SDS011;10615;42.702;23.314;2024-02-26T03:51:17;26.75;;;20.17;;
20910;SDS011;10615;42.702;23.314;2024-02-26T03:52:18;30.52;;;20.88;;
20910;SDS011;10615;42.702;23.314;2024-02-26T03:53:18;28.70;;;19.88;;
20910;SDS011;10615;42.702;23.314;2024-02-26T03:54:19;31.35;;;20.13;;
20910;SDS011;10615;42.702;23.314;2024-02-26T03:55:20;29.23;;;20.58;;
20910;SDS011;10615;42.702;23.314;2024-02-26T03:56:25;31.45;;;20.52;;
20910;SDS011;10615;42.702;23.314;2024-02-26T03:57:27;25.92;;;19.80;;
20910;SDS011;10615;42.702;23.314;2024-02-26T03:58:27;25.73;;;19.88;;
20910;SDS011;10615;42.702;23.314;2024-02-26T03:59:28;28.02;;;19.85;;
20910;SDS011;10615;42.702;23.314;2024-02-26T04:00:29;25.25;;;18.98;;
20910;SDS011;10615;42.702;23.314;2024-02-26T04:01:30;27.52;;;19.83;;
20910;SDS011;10615;42.702;23.314;2024-02-26T04:02:31;28.20;;;19.17;;
20910;SDS011;10615;42.702;23.314;2024-02-26T04:03:31;29.25;;;20.65;;
20910;SDS011;10615;42.702;23.314;2024-02-26T04:04:35;28.35;;;20.77;;
20910;SDS011;10615;42.702;23.314;2024-02-26T04:05:36;26.00;;;19.15;;
20910;SDS011;10615;42.702;23.314;2024-02-26T04:06:36;24.30;;;18.65;;
20910;SDS011;10615;42.702;23.314;2024-02-26T04:07:37;28.15;;;20.15;;
20910;SDS011;10615;42.702;23.314;2024-02-26T04:08:38;25.58;;;19.38;;
20910;SDS011;10615;42.702;23.314;2024-02-26T04:09:39;28.60;;;19.77;;
20910;SDS011;10615;42.702;23.314;2024-02-26T04:10:40;24.52;;;18.65;;
20910;SDS011;10615;42.702;23.314;2024-02-26T04:11:41;27.60;;;19.98;;
20910;SDS011;10615;42.702;23.314;2024-02-26T04:12:43;28.40;;;19.40;;
20910;SDS011;10615;42.702;23.314;2024-02-26T04:13:44;32.20;;;20.05;;
20910;SDS011;10615;42.702;23.314;2024-02-26T04:14:51;25.20;;;18.70;;
20910;SDS011;10615;42.702;23.314;2024-02-26T04:15:51;29.45;;;20.35;;
20910;SDS011;10615;42.702;23.314;2024-02-26T04:16:52;26.20;;;19.67;;
20910;SDS011;10615;42.702;23.314;2024-02-26T04:17:54;31.10;;;20.98;;
20910;SDS011;10615;42.702;23.314;2024-02-26T04:18:55;31.63;;;21.48;;
20910;SDS011;10615;42.702;23.314;2024-02-26T04:19:55;30.77;;;21.85;;
20910;SDS011;10615;42.702;23.314;2024-02-26T04:20:56;29.92;;;20.63;;
20910;SDS011;10615;42.702;23.314;2024-02-26T04:21:57;30.85;;;20.48;;
20910;SDS011;10615;42.702;23.314;2024-02-26T04:22:59;29.88;;;20.52;;
20910;SDS011;10615;42.702;23.314;2024-02-26T04:23:59;31.90;;;21.83;;
20910;SDS011;10615;42.702;23.314;2024-02-26T04:25:01;29.05;;;21.25;;
20910;SDS011;10615;42.702;23.314;2024-02-26T04:26:03;30.65;;;21.15;;
20910;SDS011;10615;42.702;23.314;2024-02-26T04:27:05;30.45;;;21.00;;
20910;SDS011;10615;42.702;23.314;2024-02-26T04:28:05;31.23;;;21.45;;
20910;SDS011;10615;42.702;23.314;2024-02-26T04:29:06;33.88;;;22.95;;
20910;SDS011;10615;42.702;23.314;2024-02-26T04:30:07;33.47;;;22.63;;
20910;SDS011;10615;42.702;23.314;2024-02-26T04:31:08;38.40;;;23.35;;
20910;SDS011;10615;42.702;23.314;2024-02-26T04:32:09;36.22;;;23.20;;
20910;SDS011;10615;42.702;23.314;2024-02-26T04:33:10;33.58;;;22.25;;
20910;SDS011;10615;42.702;23.314;2024-02-26T04:34:10;31.85;;;23.15;;
20910;SDS011;10615;42.702;23.314;2024-02-26T04:35:11;34.00;;;23.15;;
20910;SDS011;10615;42.702;23.314;2024-02-26T04:36:15;35.00;;;23.02;;
20910;SDS011;10615;42.702;23.314;2024-02-26T04:37:16;34.90;;;23.13;;
20910;SDS011;10615;42.702;23.314;2024-02-26T04:38:17;33.15;;;23.60;;
20910;SDS011;10615;42.702;23.314;2024-02-26T04:39:18;35.42;;;23.48;;
20910;SDS011;10615;42.702;23.314;2024-02-26T04:40:18;34.13;;;23.77;;
20910;SDS011;10615;42.702;23.314;2024-02-26T04:41:19;34.08;;;22.60;;
20910;SDS011;10615;42.702;23.314;2024-02-26T04:42:20;33.53;;;23.35;;
20910;SDS011;10615;42.702;23.314;2024-02-26T04:43:20;34.20;;;23.00;;
20910;SDS011;10615;42.702;23.314;2024-02-26T04:44:21;35.30;;;23.13;;
20910;SDS011;10615;42.702;23.314;2024-02-26T04:45:22;36.35;;;23.17;;
20910;SDS011;10615;42.702;23.314;2024-02-26T04:46:22;34.88;;;23.35;;
20910;SDS011;10615;42.702;23.314;2024-02-26T04:47:23;32.20;;;23.20;;
20910;SDS011;10615;42.702;23.314;2024-02-26T04:48:24;34.00;;;23.45;;
20910;SDS011;10615;42.702;23.314;2024-02-26T04:49:25;35.35;;;23.23;;
20910;SDS011;10615;42.702;23.314;2024-02-26T04:50:25;40.60;;;25.00;;
20910;SDS011;10615;42.702;23.314;2024-02-26T04:51:26;36.58;;;24.48;;
20910;SDS011;10615;42.702;23.314;2024-02-26T04:52:27;37.72;;;24.63;;
20910;SDS011;10615;42.702;23.314;2024-02-26T04:53:28;36.42;;;24.77;;
20910;SDS011;10615;42.702;23.314;2024-02-26T04:54:28;37.92;;;25.02;;
20910;SDS011;10615;42.702;23.314;2024-02-26T04:55:29;36.92;;;23.83;;
20910;SDS011;10615;42.702;23.314;2024-02-26T04:56:30;35.22;;;23.60;;
20910;SDS011;10615;42.702;23.314;2024-02-26T04:57:31;32.67;;;22.80;;
20910;SDS011;10615;42.702;23.314;2024-02-26T04:58:31;33.83;;;24.77;;
20910;SDS011;10615;42.702;23.314;2024-02-26T04:59:32;38.78;;;24.13;;
20910;SDS011;10615;42.702;23.314;2024-02-26T05:00:33;33.70;;;24.23;;
20910;SDS011;10615;42.702;23.314;2024-02-26T05:01:33;35.13;;;24.98;;
20910;SDS011;10615;42.702;23.314;2024-02-26T05:02:34;39.97;;;25.52;;
20910;SDS011;10615;42.702;23.314;2024-02-26T05:03:38;34.70;;;23.70;;
20910;SDS011;10615;42.702;23.314;2024-02-26T05:04:38;34.88;;;23.50;;
20910;SDS011;10615;42.702;23.314;2024-02-26T05:05:39;32.70;;;23.65;;
20910;SDS011;10615;42.702;23.314;2024-02-26T05:06:40;33.72;;;22.65;;
20910;SDS011;10615;42.702;23.314;2024-02-26T05:07:41;37.65;;;23.58;;
20910;SDS011;10615;42.702;23.314;2024-02-26T05:08:43;29.45;;;22.48;;
20910;SDS011;10615;42.702;23.314;2024-02-26T05:09:44;32.13;;;23.00;;
20910;SDS011;10615;42.702;23.314;2024-02-26T05:10:46;34.13;;;22.83;;
20910;SDS011;10615;42.702;23.314;2024-02-26T05:11:47;33.72;;;23.60;;
20910;SDS011;10615;42.702;23.314;2024-02-26T05:12:47;32.50;;;23.13;;
20910;SDS011;10615;42.702;23.314;2024-02-26T05:13:48;36.60;;;24.65;;
20910;SDS011;10615;42.702;23.314;2024-02-26T05:14:49;35.35;;;23.25;;
20910;SDS011;10615;42.702;23.314;2024-02-26T05:15:49;34.95;;;22.85;;
20910;SDS011;10615;42.702;23.314;2024-02-26T05:16:52;32.70;;;23.42;;
20910;SDS011;10615;42.702;23.314;2024-02-26T05:17:53;40.42;;;25.00;;
20910;SDS011;10615;42.702;23.314;2024-02-26T05:18:53;43.53;;;26.50;;
20910;SDS011;10615;42.702;23.314;2024-02-26T05:19:55;39.95;;;25.83;;
20910;SDS011;10615;42.702;23.314;2024-02-26T05:20:56;34.67;;;24.05;;
20910;SDS011;10615;42.702;23.314;2024-02-26T05:21:57;30.98;;;22.58;;
20910;SDS011;10615;42.702;23.314;2024-02-26T05:22:57;36.38;;;23.20;;
20910;SDS011;10615;42.702;23.314;2024-02-26T05:23:59;29.60;;;22.08;;
20910;SDS011;10615;42.702;23.314;2024-02-26T05:24:59;29.13;;;22.10;;
20910;SDS011;10615;42.702;23.314;2024-02-26T05:26:00;31.20;;;21.77;;
20910;SDS011;10615;42.702;23.314;2024-02-26T05:27:01;32.75;;;22.10;;
20910;SDS011;10615;42.702;23.314;2024-02-26T05:28:02;33.13;;;22.27;;
20910;SDS011;10615;42.702;23.314;2024-02-26T05:29:03;36.72;;;22.73;;
20910;SDS011;10615;42.702;23.314;2024-02-26T05:30:03;33.55;;;22.30;;
20910;SDS011;10615;42.702;23.314;2024-02-26T05:31:05;32.55;;;21.85;;
20910;SDS011;10615;42.702;23.314;2024-02-26T05:32:06;31.50;;;20.70;;
20910;SDS011;10615;42.702;23.314;2024-02-26T05:33:07;28.33;;;20.45;;
20910;SDS011;10615;42.702;23.314;2024-02-26T05:34:07;27.67;;;20.45;;
20910;SDS011;10615;42.702;23.314;2024-02-26T05:35:08;32.35;;;21.38;;
20910;SDS011;10615;42.702;23.314;2024-02-26T05:36:09;32.13;;;20.48;;
20910;SDS011;10615;42.702;23.314;2024-02-26T05:37:10;32.38;;;21.23;;
20910;SDS011;10615;42.702;23.314;2024-02-26T05:38:11;30.88;;;21.58;;
20910;SDS011;10615;42.702;23.314;2024-02-26T05:39:12;28.52;;;20.92;;
20910;SDS011;10615;42.702;23.314;2024-02-26T05:40:13;32.63;;;22.48;;
20910;SDS011;10615;42.702;23.314;2024-02-26T05:41:15;34.40;;;23.08;;
20910;SDS011;10615;42.702;23.314;2024-02-26T05:42:16;42.38;;;28.55;;
20910;SDS011;10615;42.702;23.314;2024-02-26T05:43:17;45.17;;;31.05;;
20910;SDS011;10615;42.702;23.314;2024-02-26T05:44:18;40.10;;;28.08;;
20910;SDS011;10615;42.702;23.314;2024-02-26T05:45:19;33.08;;;22.77;;
20910;SDS011;10615;42.702;23.314;2024-02-26T05:46:20;30.13;;;21.73;;
20910;SDS011;10615;42.702;23.314;2024-02-26T05:47:21;28.23;;;20.52;;
20910;SDS011;10615;42.702;23.314;2024-02-26T05:48:22;33.10;;;21.52;;
20910;SDS011;10615;42.702;23.314;2024-02-26T05:49:23;35.30;;;22.20;;
20910;SDS011;10615;42.702;23.314;2024-02-26T05:50:23;33.40;;;22.10;;
20910;SDS011;10615;42.702;23.314;2024-02-26T05:51:24;32.80;;;22.30;;
20910;SDS011;10615;42.702;23.314;2024-02-26T05:52:25;34.47;;;22.85;;